Time;durP1;ratioP1;P1;durP2;ratioP2;P2;SDS_P1;SDS_P2;PMS_P1;PMS_P2;Temp;Humidity;BMP_temperature;BMP_pressure;BME280_temperature;BME280_humidity;BME280_pressure;Samples;Min_cycle;Max_cycle;Signal;HPM_P1;HPM_P2
2023/07/19 00:00:49;;;;;;;7.53;6.57;;;;;;;19.20;100.00;97829.88;4996450;28;20580;-77
2023/07/19 00:03:15;;;;;;;11.30;7.30;;;;;;;19.18;100.00;97828.56;4996685;28;20217;-77
2023/07/19 00:05:41;;;;;;;9.53;7.50;;;;;;;19.18;100.00;97831.25;4996690;28;20203;-78
2023/07/19 00:08:08;;;;;;;8.93;7.33;;;;;;;19.23;100.00;97834.72;4996533;28;20322;-77
2023/07/19 00:10:34;;;;;;;8.97;7.30;;;;;;;19.10;100.00;97829.91;4996291;28;20214;-77
2023/07/19 00:13:00;;;;;;;13.43;8.07;;;;;;;19.15;100.00;97831.78;4995873;28;20692;-77
2023/07/19 00:15:27;;;;;;;10.30;7.67;;;;;;;19.17;100.00;97827.72;4996306;28;20611;-78
2023/07/19 00:17:53;;;;;;;10.30;7.40;;;;;;;19.12;100.00;97835.84;4996069;28;20262;-77
2023/07/19 00:20:20;;;;;;;9.97;8.00;;;;;;;19.19;100.00;97828.25;4996399;28;20207;-77
2023/07/19 00:22:46;;;;;;;10.70;8.13;;;;;;;19.27;100.00;97830.38;4996348;28;20207;-78
2023/07/19 00:25:13;;;;;;;8.40;7.53;;;;;;;19.21;100.00;97818.00;4996009;28;20242;-78
2023/07/19 00:27:39;;;;;;;11.50;8.00;;;;;;;19.15;100.00;97827.22;4996734;28;20211;-77
2023/07/19 00:30:06;;;;;;;9.87;7.60;;;;;;;19.16;100.00;97828.81;4996130;28;20227;-78
2023/07/19 00:32:33;;;;;;;9.33;7.40;;;;;;;19.20;100.00;97818.28;4995854;28;20211;-78
2023/07/19 00:34:59;;;;;;;7.53;6.77;;;;;;;19.14;100.00;97820.19;4996035;28;20250;-78
2023/07/19 00:37:25;;;;;;;8.97;6.63;;;;;;;19.13;100.00;97817.78;4996625;28;20214;-77
2023/07/19 00:39:52;;;;;;;7.50;6.80;;;;;;;19.14;100.00;97824.78;4995829;28;20227;-77
2023/07/19 00:42:18;;;;;;;8.27;6.40;;;;;;;19.11;100.00;97820.78;4995954;28;20218;-78
2023/07/19 00:44:45;;;;;;;8.93;6.33;;;;;;;19.10;100.00;97812.97;4995649;28;20717;-78
2023/07/19 00:47:12;;;;;;;6.57;5.90;;;;;;;19.05;100.00;97816.47;4995886;28;20211;-77
2023/07/19 00:49:40;;;;;;;6.77;5.70;;;;;;;18.96;100.00;97809.28;4995519;28;20726;-78
2023/07/19 00:52:08;;;;;;;6.63;6.00;;;;;;;18.92;100.00;97805.53;4995822;28;20207;-77
2023/07/19 00:54:34;;;;;;;7.57;6.10;;;;;;;18.96;100.00;97817.34;4995637;28;20233;-78
2023/07/19 00:57:03;;;;;;;7.00;5.67;;;;;;;18.92;100.00;97819.00;4996284;28;20214;-78
2023/07/19 00:59:31;;;;;;;6.73;6.03;;;;;;;18.88;100.00;97815.25;4996531;28;20238;-78
2023/07/19 01:01:57;;;;;;;7.63;5.70;;;;;;;18.93;100.00;97823.28;4996723;28;20207;-78
2023/07/19 01:04:26;;;;;;;7.10;5.47;;;;;;;18.95;100.00;97821.94;4996608;28;20219;-78
2023/07/19 01:06:52;;;;;;;7.70;5.70;;;;;;;18.93;100.00;97813.34;4996565;28;20211;-78
2023/07/19 01:09:19;;;;;;;5.80;5.30;;;;;;;18.93;100.00;97796.34;4996675;28;20235;-78
2023/07/19 01:11:45;;;;;;;7.00;5.60;;;;;;;18.82;100.00;97809.06;4996860;28;20218;-78
2023/07/19 01:14:12;;;;;;;7.67;5.97;;;;;;;18.79;100.00;97817.72;4997011;28;20207;-78
2023/07/19 01:16:38;;;;;;;9.17;5.87;;;;;;;18.86;100.00;97817.41;4996991;28;20231;-78
2023/07/19 01:19:05;;;;;;;9.13;5.53;;;;;;;18.78;100.00;97809.91;4997046;28;20223;-78
2023/07/19 01:21:31;;;;;;;5.87;5.37;;;;;;;18.76;100.00;97817.44;4997038;28;20207;-78
2023/07/19 01:23:58;;;;;;;6.33;5.73;;;;;;;18.79;100.00;97822.28;4997084;28;20581;-77
2023/07/19 01:26:24;;;;;;;7.10;5.50;;;;;;;18.82;100.00;97825.22;4997522;28;20210;-78
2023/07/19 01:28:50;;;;;;;8.77;5.60;;;;;;;18.91;100.00;97817.38;4996792;28;20223;-78
2023/07/19 01:31:17;;;;;;;7.87;6.00;;;;;;;18.80;100.00;97818.50;4997169;28;20291;-78
2023/07/19 01:33:43;;;;;;;8.00;5.73;;;;;;;18.81;100.00;97809.34;4997602;28;20203;-78
2023/07/19 01:36:10;;;;;;;12.90;11.60;;;;;;;18.68;100.00;97818.81;4996896;28;20682;-78
2023/07/19 01:38:36;;;;;;;7.93;6.20;;;;;;;18.64;100.00;97812.38;4996424;28;20249;-78
2023/07/19 01:41:02;;;;;;;8.20;6.33;;;;;;;18.58;100.00;97816.19;4997386;28;20207;-78
2023/07/19 01:43:29;;;;;;;7.07;6.17;;;;;;;18.59;100.00;97809.72;4996967;28;20218;-78
2023/07/19 01:45:55;;;;;;;6.70;6.10;;;;;;;18.56;100.00;97806.78;4997402;28;20199;-78
2023/07/19 01:48:22;;;;;;;8.70;6.00;;;;;;;18.53;100.00;97807.31;4996995;28;20334;-78
2023/07/19 01:50:49;;;;;;;7.27;5.80;;;;;;;18.48;100.00;97805.47;4996816;28;20198;-78
2023/07/19 01:53:16;;;;;;;6.97;6.23;;;;;;;18.52;100.00;97803.00;4997168;28;20214;-78
2023/07/19 01:55:42;;;;;;;7.50;5.90;;;;;;;18.45;100.00;97814.06;4997179;28;20709;-78
2023/07/19 01:58:10;;;;;;;6.63;6.00;;;;;;;18.52;100.00;97811.09;4997295;28;20223;-78
2023/07/19 02:00:36;;;;;;;7.70;6.23;;;;;;;18.45;100.00;97808.69;4997892;28;20211;-78
2023/07/19 02:03:03;;;;;;;6.63;5.23;;;;;;;18.46;100.00;97815.69;4997216;28;20203;-78
2023/07/19 02:05:29;;;;;;;7.37;5.57;;;;;;;18.46;100.00;97818.38;4998052;28;20203;-78
2023/07/19 02:07:56;;;;;;;7.13;6.33;;;;;;;18.39;100.00;97815.19;4997532;28;20208;-78
2023/07/19 02:10:23;;;;;;;6.53;5.97;;;;;;;18.44;100.00;97814.34;4997651;28;20269;-78
2023/07/19 02:12:50;;;;;;;6.33;5.37;;;;;;;18.47;100.00;97809.25;4996946;28;20207;-78
2023/07/19 02:15:17;;;;;;;7.43;6.30;;;;;;;18.43;100.00;97802.78;4996857;28;20234;-78
2023/07/19 02:17:43;;;;;;;7.90;6.10;;;;;;;18.35;100.00;97810.59;4996992;28;20674;-78
2023/07/19 02:20:10;;;;;;;7.67;5.87;;;;;;;18.42;100.00;97828.06;4996448;28;20732;-78
2023/07/19 02:22:37;;;;;;;10.17;6.33;;;;;;;18.37;100.00;97830.78;4997005;28;20570;-78
2023/07/19 02:25:03;;;;;;;7.23;5.80;;;;;;;18.33;100.00;97821.63;4996858;28;20230;-78
2023/07/19 02:27:29;;;;;;;7.13;6.20;;;;;;;18.36;100.00;97825.66;4996911;28;20207;-78
2023/07/19 02:29:56;;;;;;;7.37;5.70;;;;;;;18.35;100.00;97835.66;4996593;28;20235;-78
2023/07/19 02:32:22;;;;;;;6.63;5.87;;;;;;;18.25;100.00;97832.94;4997330;28;20213;-78
2023/07/19 02:34:49;;;;;;;7.13;6.00;;;;;;;18.26;100.00;97839.13;4996756;28;20218;-78
2023/07/19 02:37:15;;;;;;;6.90;5.70;;;;;;;18.33;100.00;97839.69;4996465;28;20697;-78
2023/07/19 02:39:41;;;;;;;7.03;6.37;;;;;;;18.28;100.00;97837.78;4996721;28;20227;-78
2023/07/19 02:42:08;;;;;;;7.33;6.53;;;;;;;18.28;100.00;97837.78;4996125;28;20207;-79
2023/07/19 02:44:34;;;;;;;7.33;6.47;;;;;;;18.26;100.00;97834.56;4997084;28;20213;-78
2023/07/19 02:47:00;;;;;;;6.80;6.10;;;;;;;18.20;100.00;97835.66;4997854;28;20200;-78
2023/07/19 02:49:27;;;;;;;8.63;6.63;;;;;;;18.17;100.00;97833.50;4996661;28;20235;-78
2023/07/19 02:51:53;;;;;;;9.07;6.77;;;;;;;18.17;100.00;97841.56;4996604;28;20213;-78
2023/07/19 02:54:20;;;;;;;8.40;6.63;;;;;;;18.14;100.00;97844.81;4997033;28;20211;-78
2023/07/19 02:56:46;;;;;;;8.70;6.63;;;;;;;18.05;100.00;97846.44;4996758;28;20233;-78
2023/07/19 02:59:13;;;;;;;10.57;7.47;;;;;;;18.03;100.00;97853.16;4996147;28;20230;-78
2023/07/19 03:01:41;;;;;;;9.07;7.03;;;;;;;18.03;100.00;97847.78;4996829;28;20218;-78
2023/07/19 03:04:08;;;;;;;7.80;7.10;;;;;;;18.09;100.00;97849.41;5000132;28;20282;-78
2023/07/19 03:06:34;;;;;;;10.07;8.70;;;;;;;18.11;100.00;97853.44;5001459;28;20231;-78
2023/07/19 03:09:00;;;;;;;13.77;8.77;;;;;;;18.12;100.00;97857.72;5001175;28;20234;-79
2023/07/19 03:11:27;;;;;;;12.33;8.00;;;;;;;18.14;100.00;97858.25;5000638;28;20215;-78
2023/07/19 03:13:53;;;;;;;10.63;8.80;;;;;;;18.13;100.00;97862.03;5000651;28;20211;-78
2023/07/19 03:16:20;;;;;;;11.87;9.60;;;;;;;18.12;100.00;97871.19;5001184;28;20230;-78
2023/07/19 03:18:47;;;;;;;11.40;9.47;;;;;;;18.14;100.00;97862.84;5000371;28;20235;-79
2023/07/19 03:21:13;;;;;;;10.00;9.00;;;;;;;18.13;100.00;97861.22;5001328;28;20239;-78
2023/07/19 03:23:40;;;;;;;13.67;9.77;;;;;;;18.09;100.00;97871.72;5000472;28;20215;-78
2023/07/19 03:26:07;;;;;;;11.37;9.20;;;;;;;18.04;100.00;97863.66;5001207;28;20200;-78
2023/07/19 03:28:33;;;;;;;12.30;10.90;;;;;;;18.04;100.00;97860.16;5001058;28;20246;-78
2023/07/19 03:31:00;;;;;;;13.23;10.20;;;;;;;18.04;100.00;97868.22;5000861;28;20215;-78
2023/07/19 03:33:27;;;;;;;11.53;10.03;;;;;;;18.05;100.00;97869.84;5000937;28;20207;-78
2023/07/19 03:35:53;;;;;;;12.53;9.97;;;;;;;18.00;100.00;97872.56;5001863;28;20234;-78
2023/07/19 03:38:21;;;;;;;13.47;10.37;;;;;;;18.01;100.00;97869.56;5001582;28;20238;-78
2023/07/19 03:40:47;;;;;;;13.10;10.03;;;;;;;17.95;100.00;97875.22;5001311;28;20218;-79
2023/07/19 03:43:13;;;;;;;12.10;10.23;;;;;;;17.96;100.00;97879.53;5000599;28;20666;-79
2023/07/19 03:45:41;;;;;;;10.70;9.50;;;;;;;17.88;100.00;97872.00;5000688;28;20685;-78
2023/07/19 03:48:07;;;;;;;11.90;9.67;;;;;;;17.88;100.00;97880.06;5000556;28;20207;-79
2023/07/19 03:50:33;;;;;;;11.70;9.80;;;;;;;17.87;100.00;97886.53;5000452;28;20207;-78
2023/07/19 03:53:01;;;;;;;16.40;10.03;;;;;;;17.96;100.00;97887.63;5000865;28;20693;-79
2023/07/19 03:55:27;;;;;;;12.57;9.57;;;;;;;17.98;100.00;97891.66;4999812;28;20223;-79
2023/07/19 03:57:54;;;;;;;11.30;9.47;;;;;;;17.97;100.00;97889.22;5000250;28;20290;-79
2023/07/19 04:00:20;;;;;;;18.77;10.47;;;;;;;17.97;100.00;97887.31;5001013;28;20214;-78
2023/07/19 04:02:48;;;;;;;12.17;9.37;;;;;;;18.02;100.00;97887.34;5001493;28;20211;-78
2023/07/19 04:05:14;;;;;;;14.67;9.87;;;;;;;17.89;100.00;97887.88;4997351;28;20207;-78
2023/07/19 04:07:41;;;;;;;13.30;10.20;;;;;;;17.97;100.00;97889.22;4997870;28;20218;-78
2023/07/19 04:10:07;;;;;;;10.47;9.37;;;;;;;17.98;100.00;97888.13;4998205;28;20231;-78
2023/07/19 04:12:33;;;;;;;10.93;9.10;;;;;;;18.03;100.00;97893.50;4998450;28;20574;-78
2023/07/19 04:15:00;;;;;;;10.13;9.10;;;;;;;18.04;100.00;97882.47;4998437;28;20219;-79
2023/07/19 04:17:27;;;;;;;9.87;8.87;;;;;;;17.98;100.00;97888.97;4999311;28;20231;-81
2023/07/19 04:19:53;;;;;;;10.13;9.10;;;;;;;17.96;100.00;97887.63;4998547;28;20306;-78
2023/07/19 04:22:20;;;;;;;13.00;9.00;;;;;;;17.95;100.00;97894.88;4998985;28;20248;-78
2023/07/19 04:24:47;;;;;;;11.20;9.37;;;;;;;18.04;100.00;97887.03;4999935;28;20207;-80
2023/07/19 04:27:13;;;;;;;12.87;9.30;;;;;;;18.15;100.00;97886.75;5000239;28;20740;-79
2023/07/19 04:29:39;;;;;;;9.83;8.83;;;;;;;18.20;100.00;97889.47;5000101;28;20282;-79
2023/07/19 04:32:06;;;;;;;9.60;8.50;;;;;;;18.23;100.00;97891.59;5000409;28;20211;-79
2023/07/19 04:34:32;;;;;;;9.80;8.07;;;;;;;18.25;100.00;97889.47;4999842;28;20256;-79
2023/07/19 04:36:59;;;;;;;11.00;8.43;;;;;;;18.24;100.00;97885.13;5000659;28;20230;-79
2023/07/19 04:39:25;;;;;;;10.50;7.90;;;;;;;18.26;100.00;97887.56;4999490;28;20270;-79
2023/07/19 04:41:52;;;;;;;11.23;7.67;;;;;;;18.29;100.00;97887.03;4999858;28;20286;-79
2023/07/19 04:44:18;;;;;;;10.17;7.17;;;;;;;18.34;100.00;97885.19;4999558;28;20209;-79
2023/07/19 04:46:45;;;;;;;9.63;7.60;;;;;;;18.35;100.00;97877.88;4998417;28;20199;-78
2023/07/19 04:49:12;;;;;;;12.07;7.10;;;;;;;18.38;100.00;97882.75;4997800;28;20239;-79
2023/07/19 04:51:39;;;;;;;8.00;7.10;;;;;;;18.43;100.00;97878.16;4995305;28;20199;-80
2023/07/19 04:54:05;;;;;;;8.03;6.43;;;;;;;18.46;100.00;97882.97;4998653;28;20203;-79
2023/07/19 04:56:32;;;;;;;10.10;6.73;;;;;;;18.40;100.00;97877.88;4998664;28;20223;-80
2023/07/19 04:58:58;;;;;;;11.83;7.07;;;;;;;18.40;100.00;97876.00;5000680;28;20721;-80
2023/07/19 05:01:24;;;;;;;11.33;6.73;;;;;;;18.42;100.00;97873.84;5001440;28;20294;-81
2023/07/19 05:03:51;;;;;;;11.23;7.20;;;;;;;18.46;100.00;97869.53;4998602;28;20214;-80
2023/07/19 05:06:17;;;;;;;10.93;7.50;;;;;;;18.54;100.00;97873.53;4999712;28;20215;-80
2023/07/19 05:08:44;;;;;;;12.87;7.87;;;;;;;18.78;100.00;97867.25;4999060;28;20270;-80
2023/07/19 05:11:11;;;;;;;9.17;6.60;;;;;;;19.06;100.00;97865.78;4999666;28;20573;-80
2023/07/19 05:13:37;;;;;;;9.43;7.00;;;;;;;19.63;100.00;97872.19;5000439;28;20207;-80
2023/07/19 05:16:04;;;;;;;8.03;6.10;;;;;;;20.20;100.00;97868.78;4999664;28;20229;-80
2023/07/19 05:18:30;;;;;;;7.97;6.40;;;;;;;20.76;100.00;97869.00;5000432;28;20281;-80
2023/07/19 05:20:56;;;;;;;12.10;6.30;;;;;;;20.83;100.00;97862.16;4998795;28;20207;-80
2023/07/19 05:23:23;;;;;;;7.93;6.40;;;;;;;20.82;100.00;97867.84;5000506;28;20558;-80
2023/07/19 05:25:49;;;;;;;7.97;5.90;;;;;;;20.48;100.00;97857.16;5000868;28;20209;-80
2023/07/19 05:28:17;;;;;;;8.93;6.00;;;;;;;20.54;100.00;97861.44;4999433;28;20238;-80
2023/07/19 05:30:43;;;;;;;11.17;6.27;;;;;;;20.51;100.00;97864.69;5000018;28;20250;-80
2023/07/19 05:33:10;;;;;;;8.53;6.10;;;;;;;20.64;100.00;97866.72;4999360;28;20218;-80
2023/07/19 05:35:37;;;;;;;9.17;5.63;;;;;;;20.59;100.00;97865.94;5001800;28;20222;-80
2023/07/19 05:38:03;;;;;;;8.20;5.90;;;;;;;20.43;100.00;97865.31;5001503;28;20266;-80
2023/07/19 05:40:31;;;;;;;10.63;6.13;;;;;;;20.34;100.00;97866.22;5001393;28;20217;-81
2023/07/19 05:42:58;;;;;;;7.93;6.33;;;;;;;20.33;100.00;97861.91;5001659;28;20214;-80
2023/07/19 05:45:24;;;;;;;10.70;6.53;;;;;;;20.34;100.00;97869.72;5002130;28;20214;-76
2023/07/19 05:47:51;;;;;;;8.83;6.37;;;;;;;20.34;100.00;97871.63;4994278;28;20214;-76
2023/07/19 05:50:17;;;;;;;8.40;6.07;;;;;;;20.34;100.00;97871.63;4993853;28;20714;-76
2023/07/19 05:52:43;;;;;;;8.00;6.57;;;;;;;20.44;100.00;97866.13;4993812;28;20210;-76
2023/07/19 05:55:10;;;;;;;7.50;5.80;;;;;;;20.41;100.00;97861.28;4994295;28;20211;-76
2023/07/19 05:57:37;;;;;;;10.70;6.40;;;;;;;20.52;100.00;97871.69;4994353;28;20235;-76
2023/07/19 06:00:10;;;;;;;8.77;5.70;;;;;;;20.60;100.00;97875.66;4994801;28;20577;-76
2023/07/19 06:02:36;;;;;;;9.63;5.83;;;;;;;20.71;100.00;97888.75;5004082;28;20196;-79
2023/07/19 06:05:03;;;;;;;8.83;5.73;;;;;;;20.72;100.00;97889.59;5006570;28;20214;-80
2023/07/19 06:07:29;;;;;;;6.60;5.73;;;;;;;20.69;100.00;97887.44;5006118;28;20206;-80
2023/07/19 06:09:55;;;;;;;8.93;5.43;;;;;;;20.78;100.00;97883.00;5004740;28;20223;-80
2023/07/19 06:12:22;;;;;;;6.70;5.83;;;;;;;20.89;100.00;97890.72;5005624;28;20662;-79
2023/07/19 06:14:48;;;;;;;8.57;5.80;;;;;;;20.91;100.00;97893.16;5005717;28;20217;-80
2023/07/19 06:17:14;;;;;;;7.90;5.63;;;;;;;20.93;100.00;97891.00;5005078;28;20226;-80
2023/07/19 06:19:41;;;;;;;8.17;6.27;;;;;;;21.05;100.00;97894.88;5003684;28;20709;-80
2023/07/19 06:22:07;;;;;;;8.03;5.23;;;;;;;21.07;100.00;97891.91;5005525;28;20210;-80
2023/07/19 06:24:33;;;;;;;9.00;5.43;;;;;;;21.02;100.00;97892.75;5007176;28;20214;-79
2023/07/19 06:27:00;;;;;;;8.97;5.73;;;;;;;21.11;100.00;97888.31;5005017;28;20274;-80
2023/07/19 06:29:26;;;;;;;7.77;6.17;;;;;;;21.24;100.00;97886.78;5005333;28;20227;-80
2023/07/19 06:31:52;;;;;;;8.83;5.23;;;;;;;21.28;100.00;97890.50;5002103;28;20324;-80
2023/07/19 06:34:19;;;;;;;7.17;5.53;;;;;;;21.34;100.00;97895.56;5003356;28;20211;-80
2023/07/19 06:36:45;;;;;;;10.30;6.10;;;;;;;21.37;100.00;97888.78;5003304;28;20635;-80
2023/07/19 06:39:12;;;;;;;9.73;6.17;;;;;;;21.44;100.00;97887.31;5007247;28;20333;-79
2023/07/19 06:41:38;;;;;;;7.87;5.07;;;;;;;21.63;100.00;97890.03;5003412;28;20203;-78
2023/07/19 06:44:04;;;;;;;6.97;4.60;;;;;;;21.78;100.00;97895.22;5002731;28;20298;-79
2023/07/19 06:46:31;;;;;;;6.28;4.30;;;;;;;22.04;100.00;97896.44;5005102;28;20203;-79
2023/07/19 06:48:57;;;;;;;7.03;3.80;;;;;;;22.13;95.26;97902.78;5004466;28;20695;-78
2023/07/19 06:51:24;;;;;;;4.72;3.53;;;;;;;22.42;93.80;97895.22;5003979;28;20209;-79
2023/07/19 06:53:50;;;;;;;5.95;4.32;;;;;;;22.37;92.35;97906.16;5005174;28;20262;-79
2023/07/19 06:56:17;;;;;;;6.95;4.22;;;;;;;22.43;100.00;97902.28;5006091;28;20227;-79
2023/07/19 06:58:43;;;;;;;6.72;4.05;;;;;;;22.60;93.46;97913.34;5003974;28;20317;-79
2023/07/19 07:01:10;;;;;;;8.77;4.40;;;;;;;22.71;97.90;97906.66;5002990;28;20698;-80
2023/07/19 07:03:37;;;;;;;10.35;5.47;;;;;;;22.71;100.00;97906.66;5004057;28;20203;-79
2023/07/19 07:06:03;;;;;;;8.85;4.93;;;;;;;22.75;100.00;97908.44;5003891;28;20225;-79
2023/07/19 07:08:30;;;;;;;7.22;4.93;;;;;;;22.76;100.00;97907.38;5004709;28;20234;-79
2023/07/19 07:10:56;;;;;;;10.15;6.15;;;;;;;22.67;100.00;97905.63;5001788;28;20207;-77
2023/07/19 07:13:22;;;;;;;8.05;5.18;;;;;;;22.72;100.00;97909.06;4997837;28;20214;-77
2023/07/19 07:15:51;;;;;;;10.65;5.43;;;;;;;22.86;100.00;97911.78;4998140;28;20298;-77
2023/07/19 07:18:17;;;;;;;8.02;4.95;;;;;;;23.14;100.00;97900.63;4997545;28;20223;-77
2023/07/19 07:20:44;;;;;;;7.35;4.50;;;;;;;23.24;100.00;97900.44;4997852;28;20213;-77
2023/07/19 07:23:10;;;;;;;7.47;3.92;;;;;;;23.41;90.00;97902.50;4997815;28;20214;-77
2023/07/19 07:25:37;;;;;;;8.15;3.90;;;;;;;23.44;86.54;97901.91;4997873;28;20207;-78
2023/07/19 07:28:04;;;;;;;4.97;3.70;;;;;;;23.65;89.79;97895.72;4997860;28;20204;-78
2023/07/19 07:30:31;;;;;;;5.97;3.55;;;;;;;23.70;86.59;97900.25;4997614;28;20670;-77
2023/07/19 07:32:57;;;;;;;4.47;3.17;;;;;;;23.94;81.22;97900.78;4997907;28;20207;-77
2023/07/19 07:35:24;;;;;;;6.40;3.13;;;;;;;24.06;82.20;97901.81;5001155;28;20741;-73
2023/07/19 07:37:50;;;;;;;3.75;2.65;;;;;;;24.07;75.37;97902.63;4996727;28;20231;-73
2023/07/19 07:40:17;;;;;;;6.13;2.88;;;;;;;24.17;67.80;97902.38;4996816;28;20211;-73
2023/07/19 07:42:43;;;;;;;5.45;2.60;;;;;;;24.37;63.39;97899.16;4996749;28;20277;-73
2023/07/19 07:45:10;;;;;;;3.13;2.30;;;;;;;24.30;66.40;97902.31;4996646;28;20635;-73
2023/07/19 07:47:36;;;;;;;5.40;2.80;;;;;;;24.29;63.90;97906.13;4996915;28;20207;-73
2023/07/19 07:50:04;;;;;;;5.95;2.78;;;;;;;24.30;60.93;97902.31;4996231;28;20235;-73
2023/07/19 07:52:31;;;;;;;5.78;3.20;;;;;;;24.41;59.93;97902.84;4996708;28;20800;-73
2023/07/19 07:54:57;;;;;;;3.47;2.42;;;;;;;24.50;60.91;97903.69;4996654;28;20213;-73
2023/07/19 07:57:24;;;;;;;4.25;3.20;;;;;;;24.56;58.26;97902.47;4996819;28;20231;-73
2023/07/19 07:59:50;;;;;;;3.28;2.33;;;;;;;24.62;64.88;97903.94;4996818;28;20235;-73
2023/07/19 08:02:16;;;;;;;4.13;2.25;;;;;;;24.70;66.76;97908.63;4996766;28;20207;-71
2023/07/19 08:04:43;;;;;;;3.75;2.95;;;;;;;24.61;57.90;97905.06;4996827;28;20214;-71
2023/07/19 08:07:09;;;;;;;6.53;3.42;;;;;;;24.74;60.46;97910.41;4996149;28;20287;-71
2023/07/19 08:09:36;;;;;;;6.43;2.80;;;;;;;25.02;57.78;97914.50;4996379;28;20598;-71
2023/07/19 08:12:02;;;;;;;4.43;3.42;;;;;;;25.03;58.68;97909.88;4996270;28;20548;-71
2023/07/19 08:14:28;;;;;;;4.35;2.00;;;;;;;25.08;57.47;97901.56;4996400;28;20211;-71
2023/07/19 08:16:55;;;;;;;2.83;2.30;;;;;;;25.16;57.51;97907.06;4996479;28;20219;-70
2023/07/19 08:19:21;;;;;;;3.42;3.13;;;;;;;25.12;52.07;97910.72;4996426;28;20231;-71
2023/07/19 08:21:48;;;;;;;3.75;2.60;;;;;;;25.20;52.07;97904.50;4996707;28;20211;-71
2023/07/19 08:24:14;;;;;;;4.72;2.40;;;;;;;25.21;52.73;97900.66;4996320;28;20298;-70
2023/07/19 08:26:40;;;;;;;2.10;1.85;;;;;;;25.25;52.06;97907.06;4996576;28;20213;-70
2023/07/19 08:29:07;;;;;;;4.00;2.33;;;;;;;25.22;50.20;97907.69;4996123;28;20281;-70
2023/07/19 08:31:34;;;;;;;2.80;2.15;;;;;;;25.18;52.94;97906.72;4995998;28;20781;-70
2023/07/19 08:34:00;;;;;;;4.05;3.65;;;;;;;25.05;52.12;97899.50;4996935;28;20374;-71
2023/07/19 08:36:27;;;;;;;4.88;2.72;;;;;;;25.20;52.63;97899.06;4996801;28;20662;-71
2023/07/19 08:38:53;;;;;;;5.60;2.25;;;;;;;25.38;52.93;97898.78;4996265;28;20426;-71
2023/07/19 08:41:22;;;;;;;3.78;2.45;;;;;;;25.34;49.52;97897.03;4995940;28;20207;-71
2023/07/19 08:43:49;;;;;;;5.55;2.03;;;;;;;25.43;47.94;97884.25;4995573;28;20204;-71
2023/07/19 08:46:16;;;;;;;5.45;2.45;;;;;;;25.44;47.52;97899.44;4995585;28;20222;-71
2023/07/19 08:48:47;;;;;;;5.45;4.28;;;;;;;25.34;49.46;97888.88;4995329;28;20355;-71
2023/07/19 08:51:15;;;;;;;8.27;2.22;;;;;;;25.35;47.77;97883.09;4996285;28;20208;-71
2023/07/19 08:53:42;;;;;;;6.00;3.17;;;;;;;25.44;47.69;97894.00;4995533;28;20230;-71
2023/07/19 08:56:10;;;;;;;2.88;2.22;;;;;;;25.49;43.65;97881.03;4995439;28;20207;-70
2023/07/19 08:58:40;;;;;;;4.55;3.58;;;;;;;25.44;46.90;97883.09;4995481;28;20241;-72
2023/07/19 09:01:08;;;;;;;2.50;1.98;;;;;;;25.50;49.73;97873.66;4995353;28;20207;-71
2023/07/19 09:03:34;;;;;;;3.63;1.92;;;;;;;25.56;44.00;97878.63;4995579;28;20254;-71
2023/07/19 09:06:01;;;;;;;5.95;5.35;;;;;;;25.42;43.72;97871.75;4995319;28;20302;-71
2023/07/19 09:08:38;;;;;;;3.70;2.47;;;;;;;25.81;47.50;97874.31;4995334;28;20223;-72
2023/07/19 09:11:05;;;;;;;25.10;22.70;;;;;;;25.78;44.39;97866.81;4995204;28;20211;-71
2023/07/19 09:13:33;;;;;;;9.20;7.53;;;;;;;25.59;40.34;97863.56;4995262;28;20203;-71
2023/07/19 09:16:02;;;;;;;8.77;6.20;;;;;;;25.70;40.98;97860.22;4995144;28;20211;-70
2023/07/19 09:18:33;;;;;;;3.75;3.45;;;;;;;25.68;38.08;97861.66;4994832;28;20283;-71
2023/07/19 09:21:00;;;;;;;3.67;3.30;;;;;;;25.85;40.74;97858.94;4995320;28;20196;-71
2023/07/19 09:23:26;;;;;;;4.22;2.40;;;;;;;25.96;42.14;97852.09;4995277;28;20207;-71
2023/07/19 09:25:56;;;;;;;9.93;7.55;;;;;;;25.97;40.78;97850.94;4995291;28;20207;-71
2023/07/19 09:28:24;;;;;;;2.42;2.00;;;;;;;25.99;40.48;97854.13;4994873;28;20230;-71
2023/07/19 09:30:58;;;;;;;6.25;5.63;;;;;;;25.99;38.39;97848.69;4995007;28;20574;-71
2023/07/19 09:33:28;;;;;;;6.70;4.50;;;;;;;25.97;39.64;97843.56;4994664;28;20299;-70
2023/07/19 09:35:58;;;;;;;6.20;3.85;;;;;;;26.43;39.25;97846.38;4994818;28;20211;-70
2023/07/19 09:38:26;;;;;;;9.32;8.43;;;;;;;26.49;37.17;97846.97;4994854;28;20239;-70
2023/07/19 09:40:54;;;;;;;4.55;2.20;;;;;;;26.42;36.88;97846.69;4994844;28;20207;-70
2023/07/19 09:43:21;;;;;;;5.00;4.53;;;;;;;26.32;36.60;97841.59;4994573;28;20581;-70
2023/07/19 09:45:49;;;;;;;4.72;4.22;;;;;;;26.35;37.58;97843.63;4994922;28;20211;-71
2023/07/19 09:48:17;;;;;;;3.80;1.88;;;;;;;26.53;38.47;97840.53;4994509;28;20613;-71
2023/07/19 09:50:44;;;;;;;39.75;35.75;;;;;;;26.52;38.76;97854.50;4994640;28;20657;-70
2023/07/19 09:53:14;;;;;;;4.72;3.67;;;;;;;26.79;38.26;97854.91;4995034;28;20646;-70
2023/07/19 09:55:41;;;;;;;2.45;2.10;;;;;;;26.68;39.05;97848.19;4994823;28;20211;-70
2023/07/19 09:58:16;;;;;;;4.28;3.85;;;;;;;26.56;38.28;97841.81;4994582;28;20238;-70
2023/07/19 10:00:43;;;;;;;2.63;1.98;;;;;;;26.85;38.42;97825.50;4994704;28;20666;-71
2023/07/19 10:03:09;;;;;;;36.75;33.28;;;;;;;26.47;37.42;97841.03;4994488;28;20662;-71
2023/07/19 10:05:36;;;;;;;4.63;4.22;;;;;;;26.72;36.04;97837.44;4994204;28;20203;-71
2023/07/19 10:08:05;;;;;;;3.70;2.50;;;;;;;26.80;39.59;97834.69;4994472;28;20203;-71
2023/07/19 10:10:42;;;;;;;2.15;1.90;;;;;;;27.12;36.58;97835.94;4994145;28;20666;-71
2023/07/19 10:13:09;;;;;;;2.58;1.83;;;;;;;27.19;37.19;97833.53;4993841;28;20206;-71
2023/07/19 10:15:36;;;;;;;17.98;16.33;;;;;;;26.97;37.33;97836.50;4994355;28;20215;-71
2023/07/19 10:18:10;;;;;;;4.70;2.05;;;;;;;27.00;37.43;97820.28;4994263;28;20277;-71
2023/07/19 10:20:37;;;;;;;2.58;2.13;;;;;;;27.06;37.96;97831.81;4994396;28;20230;-71
2023/07/19 10:23:08;;;;;;;5.55;2.03;;;;;;;27.56;39.02;97824.41;4994433;28;20211;-71
2023/07/19 10:25:52;;;;;;;4.07;3.67;;;;;;;27.01;36.41;97824.59;4994297;28;20261;-71
2023/07/19 10:28:30;;;;;;;4.65;2.03;;;;;;;26.93;39.24;97830.13;4994286;28;20223;-71
2023/07/19 10:31:03;;;;;;;5.93;3.80;;;;;;;27.02;39.60;97825.41;4994296;28;20217;-71
2023/07/19 10:33:34;;;;;;;2.88;2.03;;;;;;;27.27;38.67;97826.41;4994137;28;20223;-71
2023/07/19 10:36:08;;;;;;;6.93;5.30;;;;;;;27.14;39.33;97820.81;4994032;28;20214;-71
2023/07/19 10:38:36;;;;;;;4.20;2.05;;;;;;;27.34;37.21;97815.75;4993985;28;20262;-71
2023/07/19 10:41:07;;;;;;;2.90;1.95;;;;;;;27.25;37.21;97818.53;4994266;28;20203;-71
2023/07/19 10:43:36;;;;;;;3.25;2.95;;;;;;;27.15;38.42;97819.69;4993949;28;20188;-71
2023/07/19 10:46:04;;;;;;;51.78;46.75;;;;;;;27.21;38.63;97817.59;4994365;28;20207;-71
2023/07/19 10:48:32;;;;;;;14.00;12.52;;;;;;;27.39;37.20;97804.66;4993506;28;20630;-71
2023/07/19 10:51:00;;;;;;;8.32;7.22;;;;;;;27.38;39.45;97811.22;4993551;28;20619;-71
2023/07/19 10:53:27;;;;;;;4.25;1.88;;;;;;;27.17;38.19;97809.25;4993492;28;20658;-71
2023/07/19 10:55:54;;;;;;;3.90;1.90;;;;;;;27.08;37.74;97807.69;4993781;28;20213;-71
2023/07/19 10:58:21;;;;;;;4.50;3.17;;;;;;;27.21;38.41;97809.41;4993538;28;20230;-71
2023/07/19 11:00:48;;;;;;;4.55;3.58;;;;;;;27.73;38.94;97802.41;4993814;28;20211;-71
2023/07/19 11:03:15;;;;;;;19.75;17.70;;;;;;;27.74;38.16;97809.47;4994189;28;20207;-71
2023/07/19 11:05:46;;;;;;;10.07;8.30;;;;;;;27.94;36.52;97803.19;4993750;28;20211;-71
2023/07/19 11:08:30;;;;;;;5.00;2.35;;;;;;;27.78;37.12;97799.47;4993910;28;20228;-71
2023/07/19 11:10:58;;;;;;;5.32;3.30;;;;;;;27.74;38.88;97804.00;4993830;28;20191;-71
2023/07/19 11:13:26;;;;;;;33.22;30.17;;;;;;;27.23;38.57;97798.97;4993567;28;20207;-70
2023/07/19 11:15:57;;;;;;;4.45;3.63;;;;;;;27.22;38.84;97791.91;4993648;28;20204;-70
2023/07/19 11:18:38;;;;;;;7.63;6.65;;;;;;;27.38;39.03;97790.19;4993673;28;20313;-71
2023/07/19 11:21:05;;;;;;;5.13;3.20;;;;;;;27.65;41.54;97786.91;4993698;28;20187;-71
2023/07/19 11:23:38;;;;;;;5.60;3.83;;;;;;;27.40;37.85;97787.13;4993895;28;20219;-71
2023/07/19 11:26:10;;;;;;;4.85;3.72;;;;;;;27.15;42.08;97783.44;4997448;28;20199;-71